Lower Burrell, Pennsylvania
Current Conditions -  °F | °C
As of 11:55 PM on Saturday 22 Nov 2014 (Local Time) from KBTP Reporting Station
Overcast Overcast  
Wind Chill: 44°   Ceiling: 5000
Heat Index: 46°   Visibility: 10mi
Dew Point: 30°   Wind: 6mph
Humidity: 53%   Direction: 190°S
Pressure: 30.1"   Gusts: NA
Location:  40.59°N, 79.73°W
Report Text: KBTP 230455Z AUTO 19005KT 10SM BKN050 OVC070 08/M01 A3010 RMK AO1
Loading
Personal Weather Stations






























Interactive Weather Map New forecast layout! Learn more

10-Day Weather Forecast

Advertisements
Track Severe Weather on mobile